Time;durP1;ratioP1;P1;durP2;ratioP2;P2;SDS_P1;SDS_P2;PMS_P1;PMS_P2;Temp;Humidity;BMP_temperature;BMP_pressure;BME280_temperature;BME280_humidity;BME280_pressure;Samples;Min_cycle;Max_cycle;Signal;HPM_P1;HPM_P2
2023/09/15 00:00:44;;;;;;;7.35;2.63;;;;;;;12.95;72.64;99353.72;4992205;28;20026;-84
2023/09/15 00:03:03;;;;;;;10.10;2.40;;;;;;;13.11;72.68;99370.78;5007447;28;20069;-85
2023/09/15 00:05:28;;;;;;;9.75;3.03;;;;;;;13.10;72.23;99372.69;5010504;28;20026;-85
2023/09/15 00:07:56;;;;;;;9.98;3.03;;;;;;;13.09;72.51;99370.25;4976990;28;20046;-85
2023/09/15 00:10:22;;;;;;;9.75;2.60;;;;;;;13.03;72.36;99357.81;5007564;28;20383;-85
2023/09/15 00:12:47;;;;;;;5.03;2.80;;;;;;;12.99;72.30;99346.00;4979081;28;20045;-85
2023/09/15 00:15:13;;;;;;;4.70;3.10;;;;;;;12.45;74.30;99355.78;4992928;28;20716;-86
2023/09/15 00:17:40;;;;;;;5.30;2.78;;;;;;;12.98;72.95;99363.13;4975680;28;20045;-85
2023/09/15 00:20:13;;;;;;;6.70;2.97;;;;;;;12.99;72.60;99367.44;4992084;28;20116;-85
2023/09/15 00:22:49;;;;;;;7.03;2.63;;;;;;;13.07;72.67;99370.50;4994610;28;20037;-85
2023/09/15 00:25:25;;;;;;;5.90;2.42;;;;;;;12.96;72.51;99358.00;5006316;28;20025;-85
2023/09/15 00:27:53;;;;;;;7.75;3.72;;;;;;;13.12;72.31;99357.16;5010903;28;20061;-85
2023/09/15 00:30:19;;;;;;;9.50;3.20;;;;;;;13.02;72.50;99362.38;5011443;28;20039;-85
2023/09/15 00:32:47;;;;;;;5.50;2.50;;;;;;;12.98;72.53;99361.25;4995390;28;20107;-85
2023/09/15 00:35:16;;;;;;;7.85;2.90;;;;;;;12.92;72.79;99354.22;5011330;28;20490;-85
2023/09/15 00:37:42;;;;;;;7.30;3.08;;;;;;;12.58;72.22;99281.22;5008095;28;20101;-85
2023/09/15 00:40:09;;;;;;;4.68;2.85;;;;;;;12.59;72.63;99293.56;4995356;28;20042;-85
2023/09/15 00:42:34;;;;;;;7.53;3.25;;;;;;;12.56;72.82;99279.84;5015237;28;20026;-86
2023/09/15 00:45:04;;;;;;;8.88;2.20;;;;;;;12.88;72.61;99360.34;5011333;28;20044;-85
2023/09/15 00:47:31;;;;;;;9.60;3.03;;;;;;;12.90;72.46;99360.88;4979817;28;20037;-85
2023/09/15 00:49:57;;;;;;;4.85;2.80;;;;;;;13.00;72.37;99364.47;5012654;28;20034;-86
2023/09/15 00:52:22;;;;;;;8.20;2.95;;;;;;;12.87;72.84;99359.50;5016362;28;20064;-86
2023/09/15 00:54:48;;;;;;;8.57;3.00;;;;;;;12.90;73.11;99367.06;5011916;28;20030;-86
2023/09/15 00:57:13;;;;;;;9.77;3.80;;;;;;;12.44;72.83;99301.44;5012550;28;20452;-85
2023/09/15 00:59:39;;;;;;;6.68;3.03;;;;;;;12.85;72.94;99355.47;4989967;28;20030;-86
2023/09/15 01:02:05;;;;;;;10.77;3.25;;;;;;;12.72;73.12;99338.72;4994120;28;20041;-85
2023/09/15 01:04:33;;;;;;;11.02;3.42;;;;;;;12.82;72.67;99345.25;4980154;28;20038;-85
2023/09/15 01:07:03;;;;;;;13.80;3.30;;;;;;;12.80;72.86;99340.13;5013091;28;20037;-85
2023/09/15 01:09:29;;;;;;;8.63;3.00;;;;;;;12.73;73.33;99344.91;5012411;28;20045;-85
2023/09/15 01:11:55;;;;;;;8.07;3.67;;;;;;;12.66;73.38;99347.75;4992461;28;20042;-85
2023/09/15 01:14:20;;;;;;;7.70;3.60;;;;;;;12.59;73.39;99335.59;4979871;28;20033;-85
2023/09/15 01:16:57;;;;;;;8.23;3.58;;;;;;;12.67;73.36;99332.47;5013525;28;20030;-85
2023/09/15 01:19:42;;;;;;;5.20;2.92;;;;;;;12.74;73.47;99346.50;5009543;28;20528;-85
2023/09/15 01:22:28;;;;;;;8.85;2.85;;;;;;;12.71;73.22;99355.06;5007285;28;20037;-85
2023/09/15 01:25:14;;;;;;;11.90;2.55;;;;;;;12.62;73.49;99351.97;5017878;28;20029;-85
2023/09/15 01:27:57;;;;;;;7.10;2.88;;;;;;;12.56;73.50;99346.81;5008364;28;20523;-85
2023/09/15 01:30:24;;;;;;;3.65;2.80;;;;;;;12.60;73.46;99347.94;5007265;28;20045;-85
2023/09/15 01:32:50;;;;;;;14.68;3.70;;;;;;;12.63;73.25;99342.91;5012451;28;20089;-85
2023/09/15 01:35:15;;;;;;;12.02;3.33;;;;;;;12.52;73.48;99338.47;4996103;28;20029;-85
2023/09/15 01:37:41;;;;;;;9.45;2.90;;;;;;;12.63;73.04;99332.19;4995453;28;20092;-85
2023/09/15 01:40:07;;;;;;;6.57;3.15;;;;;;;12.43;73.12;99315.88;5011251;28;20126;-84
2023/09/15 01:42:32;;;;;;;4.65;3.03;;;;;;;12.54;73.57;99335.53;4993349;28;20132;-85
2023/09/15 01:44:58;;;;;;;7.75;4.03;;;;;;;12.48;73.36;99328.50;4994948;28;20117;-84
2023/09/15 01:47:25;;;;;;;8.85;3.05;;;;;;;12.62;73.19;99338.59;5010932;28;20029;-85
2023/09/15 01:49:53;;;;;;;11.32;4.13;;;;;;;12.35;73.01;99294.06;5019715;28;20038;-85
2023/09/15 01:52:21;;;;;;;8.60;3.38;;;;;;;12.37;73.24;99326.75;4993177;28;20120;-84
2023/09/15 01:54:49;;;;;;;6.97;3.33;;;;;;;12.40;73.54;99326.28;5010688;28;20040;-85
2023/09/15 01:57:14;;;;;;;6.43;3.10;;;;;;;12.54;73.19;99338.22;5022864;28;20046;-85
2023/09/15 01:59:39;;;;;;;7.13;3.53;;;;;;;12.51;73.31;99339.53;5007326;28;21563;-85
2023/09/15 02:02:05;;;;;;;11.13;3.95;;;;;;;12.50;73.20;99342.44;5009892;28;20026;-85
2023/09/15 02:04:31;;;;;;;6.03;2.83;;;;;;;12.45;73.31;99345.88;4991633;28;20125;-85
2023/09/15 02:06:56;;;;;;;8.40;3.22;;;;;;;12.50;73.48;99342.44;5011899;28;20122;-85
2023/09/15 02:09:21;;;;;;;6.47;3.60;;;;;;;12.30;73.87;99329.59;4996350;28;20037;-85
2023/09/15 02:11:47;;;;;;;7.88;2.92;;;;;;;12.26;73.37;99314.28;5007676;28;20061;-85
2023/09/15 02:14:12;;;;;;;6.25;3.00;;;;;;;12.33;73.42;99331.00;4977339;28;20040;-85
2023/09/15 02:16:38;;;;;;;10.98;4.45;;;;;;;12.42;73.35;99334.84;4973995;28;20034;-85
2023/09/15 02:19:06;;;;;;;7.20;3.33;;;;;;;12.32;73.27;99327.50;4976201;28;20060;-85
2023/09/15 02:21:31;;;;;;;7.57;3.70;;;;;;;12.42;73.38;99334.84;5006823;28;20454;-85
2023/09/15 02:23:56;;;;;;;8.00;3.10;;;;;;;12.43;73.34;99339.97;5008628;28;20125;-85
2023/09/15 02:26:22;;;;;;;11.60;3.58;;;;;;;11.94;73.19;99284.72;5008294;28;20117;-85
2023/09/15 02:28:47;;;;;;;7.32;3.08;;;;;;;12.37;73.19;99345.50;4991800;28;20104;-85
2023/09/15 02:31:12;;;;;;;6.75;3.50;;;;;;;12.35;73.11;99335.03;4990405;28;20393;-85
2023/09/15 02:33:38;;;;;;;3.72;3.35;;;;;;;12.23;73.17;99331.66;5007618;28;21769;-85
2023/09/15 02:36:04;;;;;;;11.20;3.33;;;;;;;12.08;73.81;99317.28;5005033;28;20088;-85
2023/09/15 02:38:29;;;;;;;9.25;3.70;;;;;;;11.77;73.76;99279.38;4991498;28;20027;-85
2023/09/15 02:40:54;;;;;;;9.60;3.08;;;;;;;12.23;73.77;99328.19;5009615;28;20033;-85
2023/09/15 02:43:20;;;;;;;5.45;2.78;;;;;;;12.08;73.95;99326.09;4996358;28;21024;-85
2023/09/15 02:45:45;;;;;;;5.47;3.28;;;;;;;12.13;73.77;99338.72;4994859;28;20034;-85
2023/09/15 02:48:11;;;;;;;6.35;3.92;;;;;;;12.03;73.74;99318.00;5016225;28;20040;-85
2023/09/15 02:50:41;;;;;;;11.05;3.10;;;;;;;12.11;73.62;99333.63;4993728;28;20442;-85
2023/09/15 02:53:06;;;;;;;8.50;3.13;;;;;;;12.15;73.73;99325.91;5006756;28;20113;-85
2023/09/15 02:55:32;;;;;;;7.40;4.10;;;;;;;11.94;73.58;99311.47;4990846;28;20040;-85
2023/09/15 02:57:57;;;;;;;12.98;3.53;;;;;;;12.18;73.48;99323.56;4978026;28;20037;-85
2023/09/15 03:00:22;;;;;;;8.90;4.22;;;;;;;12.02;73.50;99311.03;5011842;28;20030;-84
2023/09/15 03:02:48;;;;;;;8.07;2.97;;;;;;;11.71;73.59;99266.16;4978473;28;20599;-84
2023/09/15 03:05:13;;;;;;;9.38;3.30;;;;;;;12.09;73.71;99324.22;4983188;28;20034;-85
2023/09/15 03:07:39;;;;;;;11.10;4.18;;;;;;;11.89;73.39;99304.16;5005401;28;20087;-84
2023/09/15 03:10:09;;;;;;;5.82;3.80;;;;;;;12.03;73.67;99315.34;4975329;28;20029;-85
2023/09/15 03:12:35;;;;;;;10.88;3.67;;;;;;;11.68;73.34;99269.34;5008977;28;20033;-85
2023/09/15 03:15:06;;;;;;;9.80;4.28;;;;;;;11.91;73.63;99301.25;5008095;28;20057;-84
2023/09/15 03:17:35;;;;;;;15.13;3.75;;;;;;;11.92;73.45;99314.38;4988828;28;20030;-84
2023/09/15 03:20:08;;;;;;;9.60;3.70;;;;;;;11.90;73.26;99310.34;5006569;28;20120;-84
2023/09/15 03:22:33;;;;;;;7.53;3.40;;;;;;;11.93;73.06;99309.81;5006565;28;20033;-85
2023/09/15 03:24:59;;;;;;;5.90;3.15;;;;;;;11.91;72.88;99299.38;4980015;28;20490;-85
2023/09/15 03:27:24;;;;;;;12.88;3.70;;;;;;;11.88;73.33;99315.91;5004861;28;20552;-85
2023/09/15 03:29:49;;;;;;;8.95;3.65;;;;;;;11.88;72.99;99315.91;4989312;28;20436;-85
2023/09/15 03:32:15;;;;;;;5.10;4.20;;;;;;;11.89;72.99;99314.06;4994874;28;20608;-85
2023/09/15 03:34:40;;;;;;;11.90;4.15;;;;;;;11.81;73.49;99317.16;4973929;28;20030;-85
2023/09/15 03:37:06;;;;;;;6.80;4.18;;;;;;;11.78;73.72;99306.94;4991131;28;20513;-85
2023/09/15 03:39:31;;;;;;;4.72;3.83;;;;;;;11.88;73.37;99310.56;4974311;28;20374;-85
2023/09/15 03:41:57;;;;;;;8.05;3.65;;;;;;;11.68;73.39;99306.78;4990089;28;20049;-85
2023/09/15 03:44:22;;;;;;;9.23;4.57;;;;;;;11.80;73.77;99312.84;5007315;28;20026;-85
2023/09/15 03:46:48;;;;;;;7.45;3.85;;;;;;;11.79;73.78;99322.75;5007548;28;20064;-85
2023/09/15 03:49:14;;;;;;;7.07;3.90;;;;;;;11.77;73.94;99308.78;5007688;28;20089;-85
2023/09/15 03:51:40;;;;;;;8.35;4.03;;;;;;;11.73;73.17;99304.97;4994538;28;20030;-85
2023/09/15 03:54:05;;;;;;;11.70;5.30;;;;;;;11.72;73.80;99316.75;4993040;28;20374;-85
2023/09/15 03:56:31;;;;;;;7.00;4.35;;;;;;;11.41;73.57;99249.63;5006454;28;20095;-85
2023/09/15 03:58:58;;;;;;;8.05;4.30;;;;;;;11.70;74.11;99310.03;4999204;28;20033;-85
2023/09/15 04:01:24;;;;;;;7.05;4.40;;;;;;;11.74;73.48;99306.63;5007984;28;20033;-85
2023/09/15 04:03:49;;;;;;;5.53;4.28;;;;;;;11.78;74.07;99302.41;4996186;28;20044;-85
2023/09/15 04:06:16;;;;;;;9.98;4.70;;;;;;;11.77;73.86;99308.78;5009214;28;20026;-85
2023/09/15 04:08:41;;;;;;;9.23;4.75;;;;;;;11.67;73.85;99302.47;5008328;28;20460;-85
2023/09/15 04:11:07;;;;;;;8.25;4.00;;;;;;;11.54;74.05;99292.91;4992331;28;20030;-85
2023/09/15 04:13:32;;;;;;;6.45;3.92;;;;;;;11.70;74.10;99300.16;4974095;28;20444;-85
2023/09/15 04:15:59;;;;;;;6.13;3.92;;;;;;;11.68;74.25;99307.59;5009232;28;20042;-85
2023/09/15 04:18:25;;;;;;;16.67;4.75;;;;;;;11.74;74.05;99295.91;5013691;28;20026;-84
2023/09/15 04:20:50;;;;;;;6.45;4.20;;;;;;;11.56;73.74;99268.59;5001696;28;20030;-84
2023/09/15 04:23:16;;;;;;;7.32;4.47;;;;;;;11.79;73.62;99314.72;5019527;28;20029;-84
2023/09/15 04:25:42;;;;;;;39.75;8.02;;;;;;;11.76;73.98;99307.19;5010739;28;20112;-84
2023/09/15 04:28:08;;;;;;;9.18;5.43;;;;;;;11.21;75.55;99293.69;4989037;28;20680;-84
2023/09/15 04:30:33;;;;;;;7.38;4.68;;;;;;;11.38;74.82;99285.69;4999213;28;20029;-84
2023/09/15 04:32:59;;;;;;;6.68;4.60;;;;;;;11.55;74.20;99281.16;4996614;28;20170;-84
2023/09/15 04:35:25;;;;;;;9.73;4.25;;;;;;;11.61;74.21;99298.06;4979354;28;20042;-84
2023/09/15 04:37:50;;;;;;;7.75;4.53;;;;;;;11.20;74.25;99251.19;5014387;28;21764;-84
2023/09/15 04:40:16;;;;;;;10.30;4.95;;;;;;;11.69;74.06;99314.56;5008880;28;20026;-84
2023/09/15 04:42:41;;;;;;;5.70;3.80;;;;;;;11.68;74.22;99312.13;4992296;28;20046;-85
2023/09/15 04:45:07;;;;;;;7.78;4.78;;;;;;;11.82;73.68;99318.75;4991161;28;20033;-84
2023/09/15 04:47:37;;;;;;;13.05;4.40;;;;;;;11.81;73.46;99315.28;5003569;28;20038;-84
2023/09/15 04:50:03;;;;;;;5.35;4.25;;;;;;;11.56;73.94;99317.53;5002041;28;20549;-84
2023/09/15 04:52:28;;;;;;;10.77;4.32;;;;;;;11.67;73.50;99319.34;5005993;28;20601;-85
2023/09/15 04:54:55;;;;;;;8.00;4.18;;;;;;;11.69;73.36;99309.19;4978000;28;20041;-85
2023/09/15 04:57:21;;;;;;;10.70;4.88;;;;;;;11.72;72.94;99310.59;4994419;28;20030;-85
2023/09/15 04:59:47;;;;;;;7.10;4.70;;;;;;;11.71;73.26;99319.66;5008192;28;20524;-84
2023/09/15 05:02:13;;;;;;;6.93;4.28;;;;;;;11.75;72.74;99302.88;5010770;28;20025;-84
2023/09/15 05:04:39;;;;;;;7.78;4.53;;;;;;;11.76;72.82;99314.38;5011840;28;20433;-84
2023/09/15 05:07:05;;;;;;;9.65;4.72;;;;;;;11.67;72.68;99297.13;5003961;28;20113;-84
2023/09/15 05:09:30;;;;;;;8.90;4.32;;;;;;;11.61;73.04;99301.56;4998389;28;20126;-84
2023/09/15 05:11:55;;;;;;;12.00;3.70;;;;;;;11.60;72.74;99299.16;4978988;28;20026;-84
2023/09/15 05:14:22;;;;;;;10.50;4.72;;;;;;;11.73;73.16;99325.59;5008068;28;20495;-85
2023/09/15 05:16:48;;;;;;;10.00;4.45;;;;;;;11.61;73.16;99319.47;5011438;28;20060;-84
2023/09/15 05:19:13;;;;;;;6.75;3.97;;;;;;;11.46;73.97;99321.91;4996282;28;20113;-84
2023/09/15 05:21:39;;;;;;;6.93;4.78;;;;;;;11.42;74.33;99315.41;5011122;28;20025;-84
2023/09/15 05:24:04;;;;;;;14.43;5.28;;;;;;;11.53;73.93;99325.22;5011520;28;20041;-84
2023/09/15 05:26:30;;;;;;;6.95;4.53;;;;;;;11.35;73.82;99294.19;4994967;28;20030;-84
2023/09/15 05:28:55;;;;;;;6.93;4.80;;;;;;;11.24;74.00;99281.72;4978040;28;20030;-85
2023/09/15 05:31:25;;;;;;;6.20;4.00;;;;;;;11.42;73.78;99308.22;4975609;28;20384;-84
2023/09/15 05:33:52;;;;;;;9.73;4.75;;;;;;;11.47;74.29;99326.16;4994591;28;20111;-84
2023/09/15 05:36:17;;;;;;;5.40;4.45;;;;;;;11.40;73.83;99301.50;4994475;28;20037;-84
2023/09/15 05:38:42;;;;;;;8.85;4.25;;;;;;;11.24;74.12;99287.88;4996548;28;20026;-84
2023/09/15 05:41:08;;;;;;;9.13;4.40;;;;;;;11.45;74.57;99318.41;4994620;28;20033;-84
2023/09/15 05:43:33;;;;;;;7.25;5.15;;;;;;;11.46;74.36;99309.34;5004768;28;20029;-84
2023/09/15 05:45:58;;;;;;;9.45;4.40;;;;;;;11.37;75.13;99316.13;4995923;28;20091;-83
2023/09/15 05:48:24;;;;;;;8.95;4.90;;;;;;;11.34;75.60;99321.97;4995959;28;20036;-83
2023/09/15 05:50:50;;;;;;;7.70;4.45;;;;;;;11.36;75.37;99303.81;4980628;28;20021;-84
2023/09/15 05:53:15;;;;;;;14.00;5.00;;;;;;;11.42;75.68;99316.25;4978029;28;20057;-83
2023/09/15 05:55:41;;;;;;;8.07;4.53;;;;;;;11.37;76.04;99304.63;4992626;28;20031;-84
2023/09/15 05:58:06;;;;;;;5.80;5.20;;;;;;;11.47;75.89;99324.31;4978403;28;20080;-84
2023/09/15 06:00:32;;;;;;;6.05;4.38;;;;;;;11.50;75.83;99323.84;5011243;28;20033;-84
2023/09/15 06:02:58;;;;;;;10.07;4.95;;;;;;;11.48;76.33;99320.59;5002833;28;20029;-84
2023/09/15 06:05:25;;;;;;;7.10;5.07;;;;;;;11.55;76.71;99312.44;4978464;28;20053;-84
2023/09/15 06:07:51;;;;;;;9.45;5.35;;;;;;;11.40;76.61;99293.47;5009143;28;20022;-84
2023/09/15 06:10:16;;;;;;;9.65;4.97;;;;;;;11.46;76.81;99309.34;4975509;28;20441;-84
2023/09/15 06:12:42;;;;;;;7.10;4.82;;;;;;;11.61;77.05;99322.97;4980264;28;20033;-84
2023/09/15 06:15:08;;;;;;;6.63;4.95;;;;;;;11.56;77.39;99319.38;4994894;28;20034;-84
2023/09/15 06:17:34;;;;;;;6.03;4.97;;;;;;;11.62;77.65;99327.22;4994145;28;20033;-84
2023/09/15 06:19:59;;;;;;;9.98;5.07;;;;;;;11.59;77.62;99311.69;4993387;28;20068;-84
2023/09/15 06:22:26;;;;;;;9.02;5.50;;;;;;;11.59;77.62;99303.69;4987152;28;20036;-84
2023/09/15 06:24:51;;;;;;;6.20;4.82;;;;;;;11.67;78.21;99308.63;5011824;28;20030;-84
2023/09/15 06:27:16;;;;;;;6.60;5.10;;;;;;;11.67;78.03;99299.81;4993412;28;20040;-84
2023/09/15 06:29:43;;;;;;;7.35;4.88;;;;;;;11.59;78.13;99284.97;5007850;28;20092;-84
2023/09/15 06:32:08;;;;;;;7.30;4.68;;;;;;;11.79;78.20;99317.41;4978169;28;20053;-83
2023/09/15 06:34:34;;;;;;;8.35;4.80;;;;;;;11.77;78.60;99313.34;4993362;28;20448;-83
2023/09/15 06:37:01;;;;;;;12.38;5.40;;;;;;;11.82;78.40;99305.38;4994311;28;20057;-84
2023/09/15 06:39:27;;;;;;;10.93;5.43;;;;;;;11.97;78.12;99309.09;4998273;28;20027;-84
2023/09/15 06:41:53;;;;;;;8.60;5.40;;;;;;;11.95;78.11;99313.06;4992586;28;20092;-84
2023/09/15 06:44:19;;;;;;;8.13;4.93;;;;;;;11.86;78.60;99291.28;4976085;28;20048;-84
2023/09/15 06:46:45;;;;;;;8.05;5.88;;;;;;;11.95;78.33;99305.84;4995096;28;20375;-84
2023/09/15 06:49:11;;;;;;;7.22;4.68;;;;;;;11.91;78.31;99286.00;5010526;28;20033;-83
2023/09/15 06:51:36;;;;;;;9.15;5.15;;;;;;;12.10;78.44;99302.56;5009979;28;21725;-84
2023/09/15 06:54:02;;;;;;;8.00;5.20;;;;;;;12.16;78.23;99304.28;5009668;28;20034;-84
2023/09/15 06:56:30;;;;;;;10.43;5.82;;;;;;;12.33;77.60;99306.91;4992162;28;20029;-85
2023/09/15 06:58:55;;;;;;;10.20;5.47;;;;;;;12.24;77.50;99295.00;4991702;28;20037;-84
2023/09/15 07:01:21;;;;;;;10.15;5.18;;;;;;;12.44;77.87;99311.31;4997975;28;20026;-84
2023/09/15 07:03:46;;;;;;;10.82;6.13;;;;;;;12.41;77.33;99303.78;5018606;28;20149;-85
2023/09/15 07:06:13;;;;;;;8.02;4.72;;;;;;;12.44;77.57;99305.97;4988998;28;20436;-84
2023/09/15 07:08:39;;;;;;;8.15;5.22;;;;;;;12.45;77.84;99292.31;5006486;28;20038;-84
2023/09/15 07:11:04;;;;;;;6.20;5.03;;;;;;;12.62;77.80;99308.34;4994472;28;20124;-84
2023/09/15 07:13:30;;;;;;;9.43;4.95;;;;;;;12.21;77.60;99252.69;4991507;28;20073;-85
2023/09/15 07:15:55;;;;;;;9.77;4.63;;;;;;;12.53;77.69;99293.78;4982052;28;20041;-84
2023/09/15 07:18:20;;;;;;;14.98;8.30;;;;;;;12.09;80.83;99276.06;5008672;28;20025;-84
2023/09/15 07:20:46;;;;;;;13.23;5.30;;;;;;;12.65;78.45;99307.81;4992601;28;20469;-84
2023/09/15 07:23:11;;;;;;;6.60;4.20;;;;;;;12.82;77.74;99303.19;5003095;28;20036;-84
2023/09/15 07:25:37;;;;;;;6.95;4.70;;;;;;;12.91;77.74;99308.94;5024691;28;20030;-84
2023/09/15 07:28:03;;;;;;;6.55;4.82;;;;;;;12.89;77.27;99300.34;4999641;28;20545;-84
2023/09/15 07:30:29;;;;;;;12.07;6.05;;;;;;;12.58;80.08;99283.91;5010247;28;20026;-84
2023/09/15 07:32:54;;;;;;;7.32;5.15;;;;;;;12.96;77.29;99287.53;5008438;28;20037;-84
2023/09/15 07:35:22;;;;;;;6.88;5.40;;;;;;;12.69;78.56;99279.47;5009664;28;20026;-84
2023/09/15 07:37:48;;;;;;;15.07;7.80;;;;;;;12.42;82.45;99297.38;5010435;28;20048;-85
2023/09/15 07:40:13;;;;;;;10.45;5.63;;;;;;;12.92;78.23;99289.09;4998605;28;20025;-84
2023/09/15 07:42:38;;;;;;;8.30;4.90;;;;;;;12.96;77.46;99292.88;4982357;28;20033;-84
2023/09/15 07:45:04;;;;;;;5.97;4.65;;;;;;;13.22;77.41;99302.81;4977526;28;20022;-85
2023/09/15 07:47:30;;;;;;;10.00;5.20;;;;;;;13.14;77.34;99287.22;5021547;28;20495;-84
2023/09/15 07:49:57;;;;;;;10.75;8.05;;;;;;;12.27;83.72;99275.78;4996527;28;20029;-84
2023/09/15 07:52:24;;;;;;;9.90;4.72;;;;;;;13.05;78.65;99278.81;5013500;28;20045;-84
2023/09/15 07:54:50;;;;;;;7.55;4.78;;;;;;;13.32;77.19;99293.00;4993775;28;20112;-84
2023/09/15 07:57:15;;;;;;;6.38;4.38;;;;;;;13.34;76.77;99274.81;5011576;28;20032;-84
2023/09/15 07:59:41;;;;;;;12.27;6.20;;;;;;;13.24;77.99;99289.97;4978952;28;20030;-84
2023/09/15 08:02:06;;;;;;;7.45;4.72;;;;;;;13.52;76.80;99293.16;4993916;28;20034;-84
2023/09/15 08:04:32;;;;;;;11.18;8.00;;;;;;;12.67;82.45;99263.66;4973230;28;20057;-84
2023/09/15 08:06:57;;;;;;;9.75;4.97;;;;;;;13.40;78.13;99291.72;5008143;28;20720;-84
2023/09/15 08:09:23;;;;;;;9.00;5.30;;;;;;;13.54;76.91;99285.69;4992816;28;20038;-84
2023/09/15 08:11:49;;;;;;;8.68;5.07;;;;;;;13.62;76.82;99286.28;5009949;28;20040;-84
2023/09/15 08:14:15;;;;;;;10.23;5.28;;;;;;;13.67;77.32;99299.72;5001763;28;20450;-84
2023/09/15 08:16:40;;;;;;;14.38;6.35;;;;;;;13.10;80.31;99276.19;4993238;28;20026;-85
2023/09/15 08:19:06;;;;;;;6.97;5.30;;;;;;;13.16;81.04;99304.66;5013602;28;20029;-84
2023/09/15 08:21:32;;;;;;;15.23;8.65;;;;;;;13.02;83.91;99302.63;5011753;28;20482;-85
2023/09/15 08:23:57;;;;;;;9.57;4.43;;;;;;;13.68;78.66;99301.34;4986928;28;20044;-85
2023/09/15 08:26:25;;;;;;;8.48;4.95;;;;;;;13.57;78.20;99278.19;4989780;28;20536;-84
2023/09/15 08:28:50;;;;;;;9.27;5.85;;;;;;;13.42;81.92;99298.47;5012286;28;20022;-84
2023/09/15 08:31:15;;;;;;;8.15;5.38;;;;;;;13.41;79.26;99231.69;5008483;28;20156;-84
2023/09/15 08:33:41;;;;;;;8.82;4.82;;;;;;;13.92;78.71;99284.59;4977933;28;20036;-84
2023/09/15 08:36:06;;;;;;;9.00;5.40;;;;;;;13.98;79.01;99270.13;5010207;28;20575;-85
2023/09/15 08:38:32;;;;;;;7.45;4.43;;;;;;;13.84;79.00;99254.78;5011715;28;20043;-84
2023/09/15 08:41:23;;;;;;;13.25;9.82;;;;;;;13.44;81.83;99263.34;4993173;28;20042;-84
2023/09/15 08:43:49;;;;;;;12.95;8.35;;;;;;;13.52;83.32;99277.06;4995698;28;20041;-85
2023/09/15 08:46:15;;;;;;;16.33;6.25;;;;;;;13.04;82.10;99202.13;5013414;28;20030;-84
2023/09/15 08:48:46;;;;;;;12.55;5.57;;;;;;;14.06;79.23;99274.22;4991478;28;20034;-84
2023/09/15 08:51:12;;;;;;;14.55;9.02;;;;;;;13.73;82.30;99272.69;5005848;28;20033;-84
2023/09/15 08:53:39;;;;;;;12.15;8.80;;;;;;;13.65;83.18;99261.63;4980749;28;20025;-84
2023/09/15 08:56:05;;;;;;;15.65;9.07;;;;;;;13.79;82.09;99254.72;5003344;28;20508;-84
2023/09/15 08:58:31;;;;;;;14.00;8.13;;;;;;;13.85;83.83;99261.72;5008271;28;20021;-84
2023/09/15 09:00:58;;;;;;;11.43;8.70;;;;;;;13.63;84.92;99256.50;5007069;28;20044;-84
2023/09/15 09:03:24;;;;;;;9.90;7.95;;;;;;;13.73;85.81;99261.13;4989462;28;20511;-84
2023/09/15 09:05:52;;;;;;;13.27;6.95;;;;;;;13.91;83.13;99250.78;4989461;28;20034;-84
2023/09/15 09:08:19;;;;;;;13.85;8.10;;;;;;;13.93;84.60;99245.97;5009774;28;20049;-83
2023/09/15 09:10:47;;;;;;;11.88;7.43;;;;;;;14.02;85.06;99251.66;5002130;28;20038;-83
2023/09/15 09:13:13;;;;;;;13.35;7.20;;;;;;;14.29;82.33;99246.97;5009231;28;20033;-84
2023/09/15 09:15:39;;;;;;;10.75;7.85;;;;;;;14.12;84.28;99228.34;5001158;28;20044;-84
2023/09/15 09:18:15;;;;;;;11.27;7.90;;;;;;;14.21;83.77;99242.91;5006949;28;20105;-84
2023/09/15 09:20:40;;;;;;;12.68;8.20;;;;;;;14.27;83.48;99243.72;4986981;28;20453;-84
2023/09/15 09:23:07;;;;;;;12.00;7.75;;;;;;;14.33;83.43;99240.00;5004844;28;20062;-84
2023/09/15 09:25:34;;;;;;;10.18;6.55;;;;;;;14.31;82.91;99212.59;5009146;28;20025;-83
2023/09/15 09:28:01;;;;;;;10.05;6.85;;;;;;;14.81;80.58;99234.22;5005921;28;20026;-84
2023/09/15 09:30:29;;;;;;;10.05;5.30;;;;;;;14.92;80.69;99243.94;5007348;28;20082;-84
2023/09/15 09:32:56;;;;;;;12.32;8.32;;;;;;;14.80;81.78;99245.25;5006047;28;20513;-84
2023/09/15 09:35:21;;;;;;;14.70;7.43;;;;;;;14.77;80.98;99222.41;5014241;28;20136;-84
2023/09/15 09:37:48;;;;;;;10.32;7.05;;;;;;;14.90;79.85;99231.81;5008819;28;20112;-84
2023/09/15 09:40:14;;;;;;;12.75;7.22;;;;;;;15.16;80.86;99230.00;5010265;28;20040;-84
2023/09/15 09:42:41;;;;;;;12.65;6.55;;;;;;;14.98;81.18;99226.72;5010278;28;20096;-83
2023/09/15 09:45:07;;;;;;;10.68;6.22;;;;;;;15.07;81.74;99223.53;4989411;28;20553;-84
2023/09/15 09:47:32;;;;;;;9.88;6.95;;;;;;;15.12;81.82;99202.81;4991147;28;20033;-84
2023/09/15 09:49:58;;;;;;;11.60;7.22;;;;;;;15.31;81.39;99222.69;5008890;28;20029;-87
2023/09/15 09:52:25;;;;;;;11.35;8.00;;;;;;;15.32;79.86;99223.50;5015846;28;20030;-87
2023/09/15 09:54:50;;;;;;;10.25;6.75;;;;;;;15.38;79.44;99198.22;5000110;28;20486;-87
2023/09/15 09:57:16;;;;;;;11.38;6.53;;;;;;;15.70;80.16;99218.38;4995086;28;20084;-87
2023/09/15 09:59:42;;;;;;;11.70;7.90;;;;;;;15.60;78.64;99204.13;5012754;28;20025;-87
2023/09/15 10:02:08;;;;;;;9.52;6.28;;;;;;;15.74;79.20;99151.38;5010188;28;20489;-86
2023/09/15 10:04:34;;;;;;;10.75;7.78;;;;;;;15.93;77.49;99213.47;5008046;28;20038;-87
2023/09/15 10:07:00;;;;;;;7.60;6.30;;;;;;;16.40;77.57;99213.84;5009982;28;20099;-86
2023/09/15 10:09:25;;;;;;;11.60;6.65;;;;;;;16.35;77.66;99198.50;5001867;28;20034;-87
2023/09/15 10:11:53;;;;;;;7.95;7.13;;;;;;;15.95;77.52;99154.78;5027230;28;20120;-87
2023/09/15 10:14:20;;;;;;;8.15;5.70;;;;;;;16.55;77.87;99212.97;5012054;28;20397;-86
2023/09/15 10:16:46;;;;;;;10.02;6.13;;;;;;;16.39;77.35;99167.22;4979620;28;20030;-87
2023/09/15 10:19:14;;;;;;;10.85;5.60;;;;;;;16.72;76.66;99197.25;4972975;28;20048;-87
2023/09/15 10:21:40;;;;;;;12.63;6.63;;;;;;;16.54;76.82;99187.09;4976789;28;20385;-86
2023/09/15 10:24:07;;;;;;;6.47;5.63;;;;;;;16.31;76.49;99124.72;5013172;28;20533;-87
2023/09/15 10:26:34;;;;;;;10.68;6.75;;;;;;;16.71;76.64;99187.56;5014430;28;20115;-86
2023/09/15 10:29:04;;;;;;;9.95;7.22;;;;;;;16.27;75.42;99139.03;5013420;28;20520;-86
2023/09/15 10:31:30;;;;;;;10.50;5.32;;;;;;;17.26;75.63;99187.13;5019746;28;20482;-87
2023/09/15 10:34:00;;;;;;;5.93;4.97;;;;;;;17.26;75.14;99181.72;4997373;28;20038;-87
2023/09/15 10:36:27;;;;;;;8.25;5.63;;;;;;;17.39;73.31;99151.38;5009456;28;20033;-87
2023/09/15 10:38:54;;;;;;;8.55;7.20;;;;;;;16.82;73.99;99152.16;5011005;28;20030;-87
2023/09/15 10:41:27;;;;;;;11.40;7.13;;;;;;;16.76;74.41;99160.56;4997928;28;20046;-86
2023/09/15 10:43:53;;;;;;;9.23;6.13;;;;;;;16.78;75.62;99164.56;5012525;28;20030;-87
2023/09/15 10:46:18;;;;;;;8.45;5.00;;;;;;;17.48;74.50;99162.34;5010088;28;20029;-87
2023/09/15 10:48:48;;;;;;;7.32;6.03;;;;;;;17.07;73.75;99116.88;5027659;28;20128;-87
2023/09/15 10:51:18;;;;;;;10.57;7.15;;;;;;;16.91;73.30;99152.34;5017139;28;20496;-87
2023/09/15 10:53:56;;;;;;;11.35;5.65;;;;;;;17.48;74.85;99181.25;5008320;28;20057;-87
2023/09/15 10:56:22;;;;;;;6.35;5.65;;;;;;;17.29;73.62;99158.75;5005439;28;20450;-87
2023/09/15 10:58:48;;;;;;;6.97;5.40;;;;;;;17.40;73.32;99147.59;5013558;28;20109;-86
2023/09/15 11:01:18;;;;;;;5.38;4.88;;;;;;;18.05;71.87;99146.06;5013768;28;20048;-87
2023/09/15 11:03:43;;;;;;;6.60;4.72;;;;;;;17.98;71.89;99159.13;5003017;28;20033;-87
2023/09/15 11:06:15;;;;;;;6.88;5.38;;;;;;;18.49;70.81;99152.00;5014811;28;20084;-87
2023/09/15 11:08:41;;;;;;;7.40;4.95;;;;;;;17.97;72.30;99115.09;5017097;28;20544;-87
2023/09/15 11:11:10;;;;;;;10.20;4.75;;;;;;;18.96;70.32;99150.22;5008580;28;20592;-87
2023/09/15 11:13:40;;;;;;;7.03;4.47;;;;;;;18.38;70.57;99087.53;5010598;28;20103;-87
2023/09/15 11:16:08;;;;;;;7.80;5.53;;;;;;;18.93;69.26;99139.97;5005498;28;20057;-87
2023/09/15 11:18:34;;;;;;;9.27;6.60;;;;;;;18.93;68.36;99157.00;4993329;28;20393;-87
2023/09/15 11:21:00;;;;;;;8.23;5.72;;;;;;;18.95;68.60;99114.22;5015567;28;20038;-87
2023/09/15 11:23:25;;;;;;;6.13;4.97;;;;;;;19.23;67.62;99099.66;4992682;28;20032;-87
2023/09/15 11:26:01;;;;;;;6.28;5.45;;;;;;;19.37;66.80;99148.44;5010475;28;20101;-87
2023/09/15 11:28:31;;;;;;;6.00;5.03;;;;;;;19.56;67.56;99148.34;4999110;28;20025;-87